Time;durP1;ratioP1;P1;durP2;ratioP2;P2;SDS_P1;SDS_P2;PMS_P1;PMS_P2;Temp;Humidity;BMP_temperature;BMP_pressure;BME280_temperature;BME280_humidity;BME280_pressure;Samples;Min_cycle;Max_cycle;Signal;HPM_P1;HPM_P2
2023/05/11 00:01:08;;;;;;;30.15;22.38;;;;;;;14.49;100.00;101364.69;5024565;28;20045;-70
2023/05/11 00:03:35;;;;;;;30.45;21.52;;;;;;;14.45;100.00;101361.53;5017591;28;20772;-70
2023/05/11 00:06:02;;;;;;;28.05;19.10;;;;;;;14.41;100.00;101354.94;5012955;28;20485;-71
2023/05/11 00:08:28;;;;;;;31.45;22.17;;;;;;;14.43;100.00;101356.41;5026544;28;20145;-72
2023/05/11 00:10:55;;;;;;;26.65;20.33;;;;;;;14.48;100.00;101361.22;5021237;28;20052;-71
2023/05/11 00:13:21;;;;;;;28.02;21.38;;;;;;;14.51;100.00;101352.16;5018759;28;20049;-72
2023/05/11 00:15:48;;;;;;;29.80;21.27;;;;;;;14.49;100.00;101357.59;5018682;28;20057;-71
2023/05/11 00:18:14;;;;;;;32.03;22.00;;;;;;;14.49;100.00;101354.13;5026722;28;20069;-72
2023/05/11 00:20:41;;;;;;;30.60;21.17;;;;;;;14.45;100.00;101353.63;5023829;28;20195;-72
2023/05/11 00:23:07;;;;;;;28.50;20.52;;;;;;;14.44;100.00;101355.44;5021344;28;20056;-72
2023/05/11 00:25:34;;;;;;;31.42;19.90;;;;;;;14.44;100.00;101350.16;5023942;28;20055;-72
2023/05/11 00:28:00;;;;;;;27.75;19.80;;;;;;;14.44;100.00;101346.69;5021182;28;20060;-72
2023/05/11 00:30:27;;;;;;;28.00;19.63;;;;;;;14.41;100.00;101347.84;5027608;28;20060;-72
2023/05/11 00:32:53;;;;;;;30.98;20.85;;;;;;;14.36;100.00;101339.56;5019052;28;20053;-72
2023/05/11 00:35:20;;;;;;;27.67;20.17;;;;;;;14.38;100.00;101342.84;5018517;28;20402;-72
2023/05/11 00:37:47;;;;;;;27.92;19.35;;;;;;;14.39;100.00;101341.06;5023392;28;20128;-73
2023/05/11 00:40:13;;;;;;;31.23;21.65;;;;;;;14.38;100.00;101348.13;5020339;28;20115;-72
2023/05/11 00:42:40;;;;;;;31.30;20.88;;;;;;;14.37;100.00;101343.03;5027029;28;20049;-72
2023/05/11 00:45:07;;;;;;;25.10;19.60;;;;;;;14.36;100.00;101344.81;5023384;28;20079;-72
2023/05/11 00:47:33;;;;;;;31.83;20.92;;;;;;;14.35;100.00;101337.91;5019225;28;20056;-72
2023/05/11 00:50:00;;;;;;;29.50;20.60;;;;;;;14.38;100.00;101342.03;5022922;28;20053;-72
2023/05/11 00:52:26;;;;;;;27.38;19.67;;;;;;;14.38;100.00;101342.03;5018141;28;20104;-71
2023/05/11 00:54:53;;;;;;;36.47;21.75;;;;;;;14.34;100.00;101349.44;5025478;28;20057;-72
2023/05/11 00:57:20;;;;;;;27.27;19.95;;;;;;;14.28;100.00;101349.25;5018256;28;20159;-72
2023/05/11 00:59:48;;;;;;;27.60;19.63;;;;;;;14.27;100.00;101355.50;5034070;28;20057;-72
2023/05/11 01:02:15;;;;;;;29.05;19.67;;;;;;;14.22;100.00;101354.16;5016752;28;20379;-72
2023/05/11 01:04:42;;;;;;;28.42;19.70;;;;;;;14.28;100.00;101352.72;5018935;28;20107;-71
2023/05/11 01:07:27;;;;;;;30.33;19.70;;;;;;;14.28;100.00;101350.06;5025590;28;20124;-71
2023/05/11 01:10:22;;;;;;;31.27;19.83;;;;;;;14.28;100.00;101357.19;5020732;28;20516;-67
2023/05/11 01:13:01;;;;;;;28.17;19.90;;;;;;;14.29;100.00;101356.19;5023526;28;20435;-70
2023/05/11 01:15:39;;;;;;;;;;;;;;;14.32;100.00;101354.06;5018267;28;20140;-69
2023/05/11 01:18:17;;;;;;;30.33;20.40;;;;;;;14.33;100.00;101355.72;5018343;28;20024;-70
2023/05/11 01:20:46;;;;;;;28.08;17.60;;;;;;;14.31;100.00;101355.06;5007868;28;20709;-70
2023/05/11 01:23:31;;;;;;;30.30;19.88;;;;;;;14.28;100.00;101357.19;5022905;28;20053;-70
2023/05/11 01:26:28;;;;;;;29.50;19.55;;;;;;;14.27;100.00;101359.00;5019647;28;20425;-70
2023/05/11 01:29:30;;;;;;;30.17;19.80;;;;;;;14.23;100.00;101352.38;5027862;28;20056;-70
2023/05/11 01:31:58;;;;;;;28.10;18.98;;;;;;;14.27;100.00;101351.06;5009054;28;20429;-70
2023/05/11 01:34:29;;;;;;;29.52;20.08;;;;;;;14.26;100.00;101353.88;5015447;28;20057;-70
2023/05/11 01:37:05;;;;;;;27.92;18.83;;;;;;;14.27;100.00;101360.78;5021058;28;20494;-70
2023/05/11 01:39:38;;;;;;;28.25;20.40;;;;;;;14.22;100.00;101359.44;5023587;28;20554;-70
2023/05/11 01:42:09;;;;;;;28.58;19.77;;;;;;;14.27;100.00;101364.28;5022783;28;20137;-69
2023/05/11 01:44:43;;;;;;;29.23;21.98;;;;;;;14.20;100.00;101368.50;5015476;28;20046;-69
2023/05/11 01:47:12;;;;;;;32.83;20.92;;;;;;;14.17;100.00;101369.66;5023654;28;20603;-69
2023/05/11 01:49:41;;;;;;;35.53;22.00;;;;;;;14.15;100.00;101365.50;5015657;28;20100;-69
2023/05/11 01:52:09;;;;;;;33.95;21.17;;;;;;;14.16;100.00;101370.63;5031903;28;20068;-69
2023/05/11 01:54:39;;;;;;;34.85;21.85;;;;;;;14.23;100.00;101365.56;5025549;28;20057;-69
2023/05/11 01:57:05;;;;;;;32.30;22.08;;;;;;;14.26;100.00;101364.41;5027931;28;20045;-69
2023/05/11 01:59:34;;;;;;;26.65;19.17;;;;;;;14.31;100.00;101372.69;5028531;28;20069;-69
2023/05/11 02:02:02;;;;;;;32.22;21.85;;;;;;;14.28;100.00;101373.00;5019762;28;20060;-69
2023/05/11 02:04:30;;;;;;;31.55;20.48;;;;;;;14.33;100.00;101373.34;5021125;28;20057;-69
2023/05/11 02:07:00;;;;;;;35.20;22.90;;;;;;;14.34;100.00;101372.38;5024646;28;20041;-69
2023/05/11 02:09:30;;;;;;;29.35;21.67;;;;;;;14.29;100.00;101369.38;5030830;28;20874;-69
2023/05/11 02:11:58;;;;;;;28.83;21.05;;;;;;;14.27;100.00;101360.78;5018559;28;20081;-69
2023/05/11 02:14:28;;;;;;;30.80;20.55;;;;;;;14.22;100.00;101374.47;5025681;28;20551;-69
2023/05/11 02:16:55;;;;;;;35.65;23.02;;;;;;;14.11;100.00;101383.44;5026398;28;20049;-69
2023/05/11 02:19:21;;;;;;;30.00;20.67;;;;;;;14.15;100.00;101382.19;5021063;28;20053;-70
2023/05/11 02:21:51;;;;;;;32.13;21.98;;;;;;;14.20;100.00;101387.81;5029217;28;20053;-69
2023/05/11 02:24:19;;;;;;;33.92;22.13;;;;;;;14.26;100.00;101383.72;5014865;28;20053;-69
2023/05/11 02:26:46;;;;;;;;;;;;;;;14.28;100.00;101378.28;5024831;28;20060;-69
2023/05/11 02:29:12;;;;;;;32.88;21.27;;;;;;;14.29;100.00;101374.66;5021279;28;20261;-69
2023/05/11 02:31:44;;;;;;;34.25;22.48;;;;;;;14.25;100.00;101379.44;5027252;28;20508;-69
2023/05/11 02:34:22;;;;;;;36.28;22.00;;;;;;;14.26;100.00;101378.44;5029730;28;20387;-69
2023/05/11 02:36:52;;;;;;;30.48;21.70;;;;;;;14.19;100.00;101372.13;5021946;28;20107;-69
2023/05/11 02:39:22;;;;;;;31.75;22.05;;;;;;;14.26;100.00;101367.06;5013930;28;20061;-69
2023/05/11 02:41:55;;;;;;;32.33;21.85;;;;;;;14.26;100.00;101367.06;5015165;28;20056;-69
2023/05/11 02:44:27;;;;;;;30.23;20.80;;;;;;;14.24;100.00;101367.22;5018722;28;20069;-69
2023/05/11 02:46:55;;;;;;;34.95;21.25;;;;;;;14.28;100.00;101367.72;5020841;28;20053;-69
2023/05/11 02:49:24;;;;;;;;;;;;;;;14.28;100.00;101367.72;5026668;28;20053;-69
2023/05/11 02:51:53;;;;;;;25.55;16.75;;;;;;;14.29;100.00;101377.28;5030936;28;20266;-68
2023/05/11 02:54:22;;;;;;;29.55;18.73;;;;;;;14.33;100.00;101368.91;5021206;28;20205;-68
2023/05/11 02:56:50;;;;;;;32.13;19.83;;;;;;;14.28;100.00;101362.44;5027965;28;20578;-68
2023/05/11 02:59:16;;;;;;;34.60;20.47;;;;;;;14.27;100.00;101366.06;5022293;28;20633;-68
2023/05/11 03:01:44;;;;;;;29.63;17.98;;;;;;;14.26;100.00;101367.88;5030367;28;20049;-68
2023/05/11 03:04:10;;;;;;;32.10;18.88;;;;;;;14.27;100.00;101366.06;5025581;28;20045;-68
2023/05/11 03:06:37;;;;;;;31.05;17.95;;;;;;;14.28;100.00;101371.19;5026207;28;20061;-68
2023/05/11 03:09:05;;;;;;;30.63;17.85;;;;;;;14.24;100.00;101368.03;5028202;28;20052;-70
2023/05/11 03:11:34;;;;;;;33.13;18.15;;;;;;;14.19;100.00;101361.56;5018602;28;20053;-68
2023/05/11 03:14:02;;;;;;;31.48;18.48;;;;;;;14.23;100.00;101363.75;5029688;28;20061;-68
2023/05/11 03:16:30;;;;;;;31.80;18.60;;;;;;;14.26;100.00;101364.41;5010111;28;20360;-68
2023/05/11 03:18:57;;;;;;;31.80;18.13;;;;;;;14.27;100.00;101363.41;5029033;28;20041;-69
2023/05/11 03:21:26;;;;;;;33.25;18.15;;;;;;;14.27;100.00;101363.41;5021983;28;20494;-69
2023/05/11 03:23:53;;;;;;;35.25;20.17;;;;;;;14.24;100.00;101361.94;5022587;28;20042;-69
2023/05/11 03:26:22;;;;;;;29.60;17.58;;;;;;;14.19;100.00;101361.56;5025559;28;20048;-69
2023/05/11 03:28:51;;;;;;;32.42;18.92;;;;;;;14.20;100.00;101371.97;5016765;28;20510;-69
2023/05/11 03:31:17;;;;;;;30.88;17.55;;;;;;;14.21;100.00;101364.88;5030216;28;20051;-69
2023/05/11 03:33:44;;;;;;;32.63;18.20;;;;;;;14.26;100.00;101362.59;5018336;28;20050;-69
2023/05/11 03:36:12;;;;;;;29.95;17.17;;;;;;;14.24;100.00;101359.28;5026521;28;20160;-69
2023/05/11 03:38:38;;;;;;;31.65;17.98;;;;;;;14.26;100.00;101361.78;5025273;28;20049;-69
2023/05/11 03:41:05;;;;;;;30.23;18.05;;;;;;;14.25;100.00;101358.31;5014588;28;20054;-69
2023/05/11 03:43:34;;;;;;;33.17;18.58;;;;;;;14.26;100.00;101356.50;5027956;28;20540;-69
2023/05/11 03:46:03;;;;;;;30.42;17.80;;;;;;;14.26;100.00;101359.97;5028414;28;20053;-69
2023/05/11 03:48:31;;;;;;;;;;;;;;;14.21;100.00;101356.97;5028840;28;20550;-69
2023/05/11 03:50:58;;;;;;;29.15;17.00;;;;;;;14.20;100.00;101360.59;5021079;28;19991;-69
2023/05/11 03:53:24;;;;;;;34.72;19.35;;;;;;;14.21;100.00;101373.63;5021811;28;20447;-69
2023/05/11 03:55:51;;;;;;;35.20;19.27;;;;;;;14.21;100.00;101360.44;5032056;28;20065;-69
2023/05/11 03:58:18;;;;;;;32.35;18.52;;;;;;;14.16;100.00;101368.00;5016286;28;20112;-69
2023/05/11 04:00:45;;;;;;;30.77;18.67;;;;;;;14.16;100.00;101365.34;5029940;28;20049;-69
2023/05/11 04:03:12;;;;;;;36.22;19.52;;;;;;;14.16;100.00;101373.28;5023051;28;20049;-69
2023/05/11 04:05:40;;;;;;;31.98;19.10;;;;;;;14.20;100.00;101371.97;5034552;28;20046;-69
2023/05/11 04:08:06;;;;;;;38.38;20.42;;;;;;;14.22;100.00;101364.72;5007983;28;20075;-69
2023/05/11 04:10:33;;;;;;;35.08;20.05;;;;;;;14.21;100.00;101367.50;5029550;28;20096;-69
2023/05/11 04:12:59;;;;;;;37.33;20.50;;;;;;;14.19;100.00;101369.47;5021035;28;20489;-69
2023/05/11 04:15:26;;;;;;;33.08;20.10;;;;;;;14.22;100.00;101375.28;5022583;28;20137;-69
2023/05/11 04:17:52;;;;;;;33.30;17.92;;;;;;;14.22;100.00;101377.09;5024762;28;20060;-69
2023/05/11 04:20:19;;;;;;;35.65;19.25;;;;;;;14.18;100.00;101371.31;5001015;28;20092;-69
2023/05/11 04:22:46;;;;;;;34.20;19.02;;;;;;;14.13;100.00;101373.59;5019512;28;20050;-69
2023/05/11 04:25:12;;;;;;;34.58;18.08;;;;;;;13.97;100.00;101384.03;5027921;28;20077;-69
2023/05/11 04:27:39;;;;;;;36.05;17.98;;;;;;;13.88;100.00;101383.16;5026886;28;20108;-69
2023/05/11 04:30:06;;;;;;;38.75;19.13;;;;;;;13.91;100.00;101387.28;5042931;28;20048;-69
2023/05/11 04:32:33;;;;;;;32.95;16.85;;;;;;;13.89;100.00;101384.78;5019709;28;20057;-69
2023/05/11 04:34:59;;;;;;;37.47;18.60;;;;;;;13.86;100.00;101390.41;5024282;28;20506;-70
2023/05/11 04:37:26;;;;;;;37.25;19.15;;;;;;;13.83;100.00;101380.97;5024541;28;20050;-69
2023/05/11 04:39:52;;;;;;;34.03;17.90;;;;;;;13.86;100.00;101387.75;5027160;28;20168;-69
2023/05/11 04:42:19;;;;;;;35.33;18.02;;;;;;;13.89;100.00;101384.78;5028080;28;20128;-69
2023/05/11 04:44:45;;;;;;;38.13;18.67;;;;;;;13.91;100.00;101389.94;5026815;28;20124;-69
2023/05/11 04:47:13;;;;;;;35.67;19.00;;;;;;;13.95;100.00;101389.44;5027367;28;20119;-70
2023/05/11 04:49:39;;;;;;;34.70;19.08;;;;;;;13.99;100.00;101397.88;5021347;28;20328;-69
2023/05/11 04:52:06;;;;;;;32.60;17.70;;;;;;;14.03;100.00;101389.53;5030574;28;20053;-70
2023/05/11 04:54:33;;;;;;;35.75;18.65;;;;;;;14.08;100.00;101399.59;5024774;28;20053;-69
2023/05/11 04:56:59;;;;;;;33.40;17.63;;;;;;;14.12;100.00;101398.31;5029443;28;20053;-69
2023/05/11 04:59:26;;;;;;;35.45;18.35;;;;;;;14.12;100.00;101397.50;5034167;28;20520;-70
2023/05/11 05:01:52;;;;;;;37.55;19.63;;;;;;;14.15;100.00;101391.88;5018859;28;20486;-69
2023/05/11 05:04:18;;;;;;;39.10;19.73;;;;;;;14.17;100.00;101396.03;5025326;28;20107;-70
2023/05/11 05:06:45;;;;;;;35.00;19.20;;;;;;;14.16;100.00;101397.00;5022063;28;20045;-70
2023/05/11 05:09:11;;;;;;;34.33;18.90;;;;;;;14.22;100.00;101401.66;5027467;28;20045;-70
2023/05/11 05:11:38;;;;;;;34.42;19.10;;;;;;;14.27;100.00;101403.00;5021798;28;20053;-69
2023/05/11 05:14:04;;;;;;;30.30;18.00;;;;;;;14.28;100.00;101404.66;5026643;28;20730;-70
2023/05/11 05:16:31;;;;;;;37.90;19.73;;;;;;;14.16;100.00;101404.94;5016189;28;20054;-70
2023/05/11 05:18:58;;;;;;;38.50;19.52;;;;;;;14.03;100.00;101402.72;5017705;28;20403;-69
2023/05/11 05:21:24;;;;;;;46.10;21.33;;;;;;;13.87;100.00;101404.41;5023286;28;20506;-69
2023/05/11 05:23:51;;;;;;;49.95;23.88;;;;;;;13.73;100.00;101409.25;5013668;28;20427;-69
2023/05/11 05:26:17;;;;;;;43.17;20.67;;;;;;;13.72;100.00;101422.56;5025834;28;20045;-69
2023/05/11 05:28:43;;;;;;;41.97;21.17;;;;;;;13.74;100.00;101416.19;5020692;28;20060;-69
2023/05/11 05:31:10;;;;;;;44.03;19.80;;;;;;;13.82;100.00;101424.16;5008940;28;20045;-69
2023/05/11 05:33:37;;;;;;;45.97;21.92;;;;;;;13.89;100.00;101421.72;5018693;28;20053;-69
2023/05/11 05:36:03;;;;;;;43.67;21.88;;;;;;;13.92;100.00;101424.06;5017315;28;20092;-69
2023/05/11 05:38:30;;;;;;;41.22;21.70;;;;;;;13.95;100.00;101426.38;5025097;28;20594;-69
2023/05/11 05:40:56;;;;;;;40.67;21.25;;;;;;;13.91;100.00;101425.03;5022098;28;20056;-69
2023/05/11 05:43:23;;;;;;;44.47;20.80;;;;;;;13.96;100.00;101433.31;5021955;28;20046;-69
2023/05/11 05:45:49;;;;;;;46.50;22.92;;;;;;;14.02;100.00;101435.34;5021891;28;20045;-69
2023/05/11 05:48:15;;;;;;;44.97;22.80;;;;;;;14.07;100.00;101437.50;5020682;28;20045;-69
2023/05/11 05:50:42;;;;;;;40.50;21.48;;;;;;;14.12;100.00;101439.69;5022825;28;20341;-69
2023/05/11 05:53:08;;;;;;;47.75;21.98;;;;;;;14.11;100.00;101441.50;5016459;28;20779;-69
2023/05/11 05:55:35;;;;;;;43.85;21.15;;;;;;;14.13;100.00;101442.19;5029331;28;20793;-70
2023/05/11 05:58:01;;;;;;;43.88;21.35;;;;;;;14.16;100.00;101441.03;5017668;28;20049;-69
2023/05/11 06:00:28;;;;;;;38.53;20.63;;;;;;;14.17;100.00;101438.25;5021493;28;20053;-69
2023/05/11 06:02:55;;;;;;;34.05;17.80;;;;;;;14.28;100.00;101452.16;5025540;28;20054;-70
2023/05/11 06:05:21;;;;;;;35.08;17.85;;;;;;;14.30;100.00;101453.66;5024934;28;20095;-69
2023/05/11 06:07:47;;;;;;;31.60;17.58;;;;;;;14.38;100.00;101450.25;5028888;28;20046;-69
2023/05/11 06:10:34;;;;;;;25.67;15.88;;;;;;;14.43;100.00;101450.63;5016444;28;20053;-70
2023/05/11 06:13:00;;;;;;;24.17;14.80;;;;;;;14.43;100.00;101446.16;5022508;28;20521;-69
2023/05/11 06:15:27;;;;;;;26.48;14.95;;;;;;;14.49;100.00;101455.28;5018734;28;20056;-69
2023/05/11 06:17:53;;;;;;;25.52;15.02;;;;;;;14.54;100.00;101450.31;5028399;28;20053;-70
2023/05/11 06:20:20;;;;;;;22.30;14.05;;;;;;;14.59;100.00;101452.53;5025627;28;20041;-70
2023/05/11 06:22:47;;;;;;;23.45;15.18;;;;;;;14.61;100.00;101450.56;5019508;28;20049;-70
2023/05/11 06:25:13;;;;;;;24.65;14.85;;;;;;;14.62;100.00;101455.69;5021970;28;20136;-69
2023/05/11 06:27:40;;;;;;;21.52;14.35;;;;;;;14.60;100.00;101449.75;5017236;28;20049;-69
2023/05/11 06:30:07;;;;;;;23.45;15.35;;;;;;;14.58;100.00;101453.50;5020825;28;20060;-69
2023/05/11 06:32:33;;;;;;;24.33;15.68;;;;;;;14.60;100.00;101456.81;5020264;28;20514;-69
2023/05/11 06:35:00;;;;;;;23.65;14.88;;;;;;;14.60;100.00;101452.41;5032893;28;20088;-69
2023/05/11 06:37:30;;;;;;;28.27;16.48;;;;;;;14.59;100.00;101453.38;5035287;28;20075;-69
2023/05/11 06:39:57;;;;;;;26.92;16.80;;;;;;;14.62;100.00;101446.94;5031474;28;20049;-69
2023/05/11 06:42:23;;;;;;;29.30;16.45;;;;;;;14.67;100.00;101449.13;5031859;28;20049;-69
2023/05/11 06:44:50;;;;;;;26.27;16.05;;;;;;;14.66;100.00;101447.44;5031884;28;20099;-69
2023/05/11 06:47:17;;;;;;;27.33;16.52;;;;;;;14.74;100.00;101445.69;5027563;28;20081;-69
2023/05/11 06:49:43;;;;;;;33.80;18.80;;;;;;;14.79;100.00;101447.84;5031146;28;20052;-69
2023/05/11 06:52:10;;;;;;;32.78;18.50;;;;;;;14.79;100.00;101445.22;5035751;28;20050;-69
2023/05/11 06:54:36;;;;;;;34.20;20.05;;;;;;;14.82;100.00;101443.09;5037235;28;20045;-69
2023/05/11 06:57:03;;;;;;;35.75;20.20;;;;;;;14.89;100.00;101440.63;5023407;28;20053;-69
2023/05/11 06:59:29;;;;;;;31.90;19.10;;;;;;;14.96;100.00;101439.00;5031924;28;20068;-69
2023/05/11 07:01:56;;;;;;;33.67;19.70;;;;;;;15.03;100.00;101447.94;5021119;28;20109;-69
2023/05/11 07:04:22;;;;;;;31.95;18.98;;;;;;;15.00;100.00;101447.44;5026869;28;20046;-69
2023/05/11 07:06:49;;;;;;;33.63;18.52;;;;;;;15.11;100.00;101447.16;5033949;28;20060;-70
2023/05/11 07:09:15;;;;;;;33.20;19.45;;;;;;;15.11;100.00;101446.31;5025643;28;20079;-69
2023/05/11 07:11:42;;;;;;;31.58;18.88;;;;;;;15.12;100.00;101448.78;5024018;28;20518;-69
2023/05/11 07:14:08;;;;;;;34.75;19.45;;;;;;;15.18;100.00;101461.34;5014198;28;20430;-69
2023/05/11 07:16:38;;;;;;;30.15;17.70;;;;;;;15.19;100.00;101451.59;5031432;28;20052;-69
2023/05/11 07:19:05;;;;;;;28.83;18.08;;;;;;;15.28;100.00;101463.84;5026229;28;20457;-69
2023/05/11 07:21:32;;;;;;;32.03;18.55;;;;;;;15.36;100.00;101465.69;5026784;28;20088;-69
2023/05/11 07:23:59;;;;;;;28.77;17.30;;;;;;;15.46;100.00;101461.06;5017135;28;20459;-69
2023/05/11 07:26:26;;;;;;;29.00;16.48;;;;;;;15.54;100.00;101462.91;5020464;28;20049;-69
2023/05/11 07:28:52;;;;;;;31.60;17.88;;;;;;;15.57;100.00;101466.06;5028032;28;20046;-69
2023/05/11 07:31:19;;;;;;;29.42;18.10;;;;;;;15.67;100.00;101465.91;5021605;28;20053;-69
2023/05/11 07:33:46;;;;;;;30.55;18.45;;;;;;;15.77;100.00;101465.78;5030183;28;20045;-70
2023/05/11 07:36:12;;;;;;;27.42;18.55;;;;;;;15.82;100.00;101463.47;5014548;28;20466;-69
2023/05/11 07:38:38;;;;;;;28.92;18.80;;;;;;;15.68;100.00;101461.44;5024991;28;20296;-70
2023/05/11 07:41:05;;;;;;;33.92;20.38;;;;;;;15.56;100.00;101472.34;5026576;28;20735;-69
2023/05/11 07:43:33;;;;;;;;;;;;;;;15.44;100.00;101468.34;5021401;28;20054;-69
2023/05/11 07:45:59;;;;;;;36.30;22.52;;;;;;;15.44;100.00;101471.00;5031016;28;19967;-69
2023/05/11 07:48:26;;;;;;;36.20;23.25;;;;;;;15.45;100.00;101467.38;5017097;28;20053;-69
2023/05/11 07:50:53;;;;;;;32.75;22.00;;;;;;;15.57;100.00;101468.72;5029933;28;20046;-69
2023/05/11 07:53:19;;;;;;;33.40;22.15;;;;;;;15.59;100.00;101464.06;5017168;28;20611;-69
2023/05/11 07:55:45;;;;;;;36.90;24.08;;;;;;;15.64;100.00;101463.56;5029524;28;20084;-69
2023/05/11 07:58:12;;;;;;;35.92;24.30;;;;;;;15.74;100.00;101466.09;5018480;28;20041;-69
2023/05/11 08:00:38;;;;;;;37.00;25.13;;;;;;;15.74;100.00;101461.66;5030972;28;20063;-69
2023/05/11 08:03:05;;;;;;;37.00;24.75;;;;;;;15.68;100.00;101467.56;5030275;28;20580;-69
2023/05/11 08:05:34;;;;;;;38.03;25.25;;;;;;;15.80;100.00;101466.28;5024246;28;20184;-69
2023/05/11 08:08:01;;;;;;;38.95;26.73;;;;;;;15.81;100.00;101469.75;5021332;28;20938;-69
2023/05/11 08:10:28;;;;;;;38.42;25.55;;;;;;;16.00;100.00;101465.94;5014003;28;20141;-69
2023/05/11 08:12:54;;;;;;;38.25;26.38;;;;;;;16.19;100.00;101470.03;5028693;28;20159;-69
2023/05/11 08:15:20;;;;;;;36.30;25.20;;;;;;;16.28;100.00;101474.34;5029270;28;20046;-69
2023/05/11 08:17:47;;;;;;;37.45;26.23;;;;;;;16.37;100.00;101472.53;5021108;28;20052;-69
2023/05/11 08:20:13;;;;;;;38.25;26.05;;;;;;;16.37;100.00;101472.53;5023327;28;20048;-69
2023/05/11 08:22:40;;;;;;;42.10;26.08;;;;;;;16.47;100.00;101472.34;5018717;28;20065;-69
2023/05/11 08:25:07;;;;;;;40.33;26.02;;;;;;;16.48;100.00;101466.84;5024241;28;20076;-69
2023/05/11 08:27:33;;;;;;;33.22;25.52;;;;;;;16.48;100.00;101472.16;5021277;28;20446;-70
2023/05/11 08:30:00;;;;;;;36.17;25.40;;;;;;;16.56;100.00;101479.25;5025951;28;20049;-68
2023/05/11 08:32:26;;;;;;;36.55;24.80;;;;;;;16.56;100.00;101474.78;5027702;28;20053;-68
2023/05/11 08:34:53;;;;;;;34.30;23.27;;;;;;;16.58;100.00;101480.75;5017748;28;20048;-68
2023/05/11 08:37:19;;;;;;;32.63;24.23;;;;;;;16.66;100.00;101476.41;5025109;28;20081;-68
2023/05/11 08:39:46;;;;;;;32.55;23.70;;;;;;;16.69;100.00;101484.03;5021808;28;20141;-68
2023/05/11 08:42:18;;;;;;;31.17;22.80;;;;;;;16.68;100.00;101475.25;5020537;28;20042;-68
2023/05/11 08:44:46;;;;;;;31.40;23.00;;;;;;;16.68;100.00;101479.72;5025695;28;20484;-68
2023/05/11 08:47:14;;;;;;;31.15;22.33;;;;;;;16.52;100.00;101475.28;5017664;28;20476;-68
2023/05/11 08:49:43;;;;;;;26.70;21.00;;;;;;;16.69;100.00;101470.78;5023792;28;20041;-68
2023/05/11 08:52:12;;;;;;;28.88;21.20;;;;;;;16.64;100.00;101465.16;5022809;28;20080;-68
2023/05/11 08:54:39;;;;;;;31.20;21.85;;;;;;;16.71;100.00;101469.59;5026873;28;20079;-68
2023/05/11 08:57:06;;;;;;;28.10;20.27;;;;;;;16.83;100.00;101475.38;5015268;28;20929;-68
2023/05/11 08:59:33;;;;;;;27.15;18.50;;;;;;;17.11;100.00;101470.47;5028368;28;20049;-68
2023/05/11 09:02:00;;;;;;;27.98;20.48;;;;;;;17.36;100.00;101476.44;5023673;28;20084;-68
2023/05/11 09:04:27;;;;;;;27.25;19.90;;;;;;;17.53;100.00;101465.75;5013681;28;20049;-68
2023/05/11 09:06:53;;;;;;;30.15;19.90;;;;;;;17.51;100.00;101465.09;5026119;28;20049;-68
2023/05/11 09:09:20;;;;;;;25.63;19.10;;;;;;;17.49;100.00;101465.25;5018907;28;20045;-68
2023/05/11 09:11:46;;;;;;;25.98;20.08;;;;;;;17.37;100.00;101471.97;5032750;28;20057;-68
2023/05/11 09:14:13;;;;;;;25.00;18.52;;;;;;;17.37;100.00;101472.81;5020314;28;20396;-68
2023/05/11 09:16:40;;;;;;;27.02;20.15;;;;;;;17.51;100.00;101462.44;5022784;28;20056;-68
2023/05/11 09:19:15;;;;;;;26.27;19.33;;;;;;;17.64;100.00;101470.66;5013907;28;20425;-68
2023/05/11 09:21:42;;;;;;;26.20;19.42;;;;;;;17.64;100.00;101465.34;5021405;28;20111;-68
2023/05/11 09:24:12;;;;;;;26.63;19.23;;;;;;;17.71;100.00;101471.56;5026920;28;20690;-68
2023/05/11 09:26:39;;;;;;;27.30;19.80;;;;;;;17.75;100.00;101472.03;5022888;28;20139;-68
2023/05/11 09:29:05;;;;;;;26.55;19.67;;;;;;;17.76;100.00;101474.53;5029347;28;20050;-68
2023/05/11 09:31:41;;;;;;;24.17;19.45;;;;;;;17.78;100.00;101464.56;5016539;28;20416;-68
2023/05/11 09:34:12;;;;;;;24.92;19.20;;;;;;;17.70;100.00;101472.59;5026040;28;20045;-68
2023/05/11 09:36:41;;;;;;;21.45;17.05;;;;;;;17.76;100.00;101469.22;5025428;28;20352;-68
2023/05/11 09:39:08;;;;;;;24.65;18.23;;;;;;;17.78;100.00;101469.03;5018867;28;20045;-68
2023/05/11 09:41:41;;;;;;;23.95;19.15;;;;;;;17.83;100.00;101468.50;5027814;28;20049;-68
2023/05/11 09:44:10;;;;;;;24.45;18.67;;;;;;;17.86;100.00;101478.81;5017280;28;20053;-68
2023/05/11 09:46:41;;;;;;;24.02;18.27;;;;;;;17.83;100.00;101474.63;5015552;28;20050;-68
2023/05/11 09:49:09;;;;;;;25.50;17.25;;;;;;;17.72;100.00;101478.53;5016722;28;20049;-68
2023/05/11 09:51:37;;;;;;;25.20;18.65;;;;;;;17.73;100.00;101479.34;5026717;28;20507;-68
2023/05/11 09:54:17;;;;;;;;;;;;;;;17.74;100.00;101479.19;5028356;28;20049;-68
2023/05/11 09:56:48;;;;;;;23.60;17.83;;;;;;;17.78;100.00;101474.34;5027420;28;20458;-69
2023/05/11 09:59:36;;;;;;;20.77;16.40;;;;;;;17.83;100.00;101474.63;5025449;28;20056;-68
2023/05/11 10:02:20;;;;;;;25.27;18.55;;;;;;;17.91;100.00;101476.41;5017767;28;20553;-68
2023/05/11 10:04:47;;;;;;;27.67;21.05;;;;;;;17.84;100.00;101471.00;5027173;28;20103;-67
2023/05/11 10:07:40;;;;;;;29.23;19.60;;;;;;;17.88;100.00;101474.97;5017721;28;20080;-68
2023/05/11 10:10:10;;;;;;;27.80;20.20;;;;;;;17.91;100.00;101471.94;5029001;28;20049;-67
2023/05/11 10:12:39;;;;;;;27.75;20.50;;;;;;;17.91;100.00;101482.53;5021489;28;20076;-68
2023/05/11 10:15:07;;;;;;;29.60;21.13;;;;;;;17.92;100.00;101481.56;5027074;28;20122;-68
2023/05/11 10:17:34;;;;;;;29.23;22.15;;;;;;;17.87;100.00;101480.44;5023889;28;20411;-68
2023/05/11 10:20:03;;;;;;;30.13;21.25;;;;;;;17.87;100.00;101483.09;5032958;28;20501;-67
2023/05/11 10:22:30;;;;;;;31.65;21.38;;;;;;;17.88;100.00;101476.78;5030500;28;20490;-68
2023/05/11 10:24:57;;;;;;;32.13;22.23;;;;;;;17.89;100.00;101473.94;5027894;28;20061;-67
2023/05/11 10:27:25;;;;;;;28.35;21.17;;;;;;;17.89;100.00;101473.94;5027659;28;20533;-67
2023/05/11 10:29:52;;;;;;;29.27;21.75;;;;;;;17.85;100.00;101480.59;5027272;28;20049;-67
2023/05/11 10:32:19;;;;;;;29.50;22.02;;;;;;;17.90;100.00;101482.75;5032440;28;20057;-68
2023/05/11 10:34:47;;;;;;;29.35;22.65;;;;;;;17.86;100.00;101479.63;5031998;28;20063;-67
2023/05/11 10:37:14;;;;;;;32.67;24.80;;;;;;;17.89;100.00;101486.38;5033949;28;20049;-68
2023/05/11 10:39:43;;;;;;;30.27;23.00;;;;;;;17.87;100.00;101485.75;5034469;28;20045;-68
2023/05/11 10:42:32;;;;;;;31.08;23.38;;;;;;;17.59;100.00;101483.59;5020798;28;20053;-68
2023/05/11 10:45:08;;;;;;;32.55;23.20;;;;;;;17.44;100.00;101488.00;5023283;28;20053;-67
2023/05/11 10:47:54;;;;;;;30.45;22.45;;;;;;;17.17;100.00;101483.03;5027296;28;20077;-67
2023/05/11 10:50:38;;;;;;;31.73;23.02;;;;;;;17.14;100.00;101486.00;5030343;28;20053;-68
2023/05/11 10:53:36;;;;;;;32.70;22.90;;;;;;;17.07;100.00;101486.88;5023008;28;20076;-68
2023/05/11 10:56:18;;;;;;;33.50;24.27;;;;;;;16.95;100.00;101492.53;5021459;28;20053;-68
2023/05/11 10:59:08;;;;;;;31.30;23.48;;;;;;;16.83;100.00;101498.41;5027393;28;20052;-68
2023/05/11 11:01:38;;;;;;;31.35;23.70;;;;;;;16.58;100.00;101490.50;5031447;28;20129;-68
2023/05/11 11:04:10;;;;;;;28.10;21.25;;;;;;;16.30;100.00;101487.41;5028934;28;20145;-67
2023/05/11 11:06:38;;;;;;;27.13;20.60;;;;;;;16.11;100.00;101494.72;5034328;28;20063;-68
2023/05/11 11:09:23;;;;;;;28.85;21.50;;;;;;;15.83;100.00;101502.16;5024249;28;20375;-68
2023/05/11 11:11:49;;;;;;;30.40;20.60;;;;;;;15.70;100.00;101517.63;5030105;28;20059;-68